sensor_id;sensor_type;location;lat;lon;timestamp;pressure;altitude;pressure_sealevel;temperature;humidity
68301;BME280;55146;47.468;18.806;2022-08-02T00:01:34;99909.00;;;20.42;68.64
68301;BME280;55146;47.468;18.806;2022-08-02T00:04:00;99912.63;;;20.42;68.71
68301;BME280;55146;47.468;18.806;2022-08-02T00:06:25;99910.84;;;20.38;68.86
68301;BME280;55146;47.468;18.806;2022-08-02T00:08:51;99908.94;;;20.30;68.99
68301;BME280;55146;47.468;18.806;2022-08-02T00:11:18;99909.91;;;20.34;68.79
68301;BME280;55146;47.468;18.806;2022-08-02T00:13:44;99900.19;;;20.31;69.11
68301;BME280;55146;47.468;18.806;2022-08-02T00:16:09;99898.91;;;20.29;69.26
68301;BME280;55146;47.468;18.806;2022-08-02T00:18:35;99896.13;;;20.29;69.06
68301;BME280;55146;47.468;18.806;2022-08-02T00:21:00;99897.50;;;20.23;69.18
68301;BME280;55146;47.468;18.806;2022-08-02T00:23:25;99897.22;;;20.15;69.53
68301;BME280;55146;47.468;18.806;2022-08-02T00:25:51;99899.31;;;20.18;69.18
68301;BME280;55146;47.468;18.806;2022-08-02T00:28:16;99898.72;;;20.13;69.50
68301;BME280;55146;47.468;18.806;2022-08-02T00:30:41;99897.28;;;20.07;69.56
68301;BME280;55146;47.468;18.806;2022-08-02T00:33:06;99902.22;;;20.10;69.55
68301;BME280;55146;47.468;18.806;2022-08-02T00:35:33;99901.47;;;20.01;69.65
68301;BME280;55146;47.468;18.806;2022-08-02T00:37:59;99905.22;;;20.05;69.96
68301;BME280;55146;47.468;18.806;2022-08-02T00:40:25;99900.31;;;20.02;70.77
68301;BME280;55146;47.468;18.806;2022-08-02T00:45:32;99909.63;;;20.06;72.29
68301;BME280;55146;47.468;18.806;2022-08-02T00:47:58;99900.53;;;19.97;72.74
68301;BME280;55146;47.468;18.806;2022-08-02T00:50:24;99907.81;;;19.89;72.88
68301;BME280;55146;47.468;18.806;2022-08-02T00:52:49;99908.50;;;19.86;72.65
68301;BME280;55146;47.468;18.806;2022-08-02T00:55:15;99901.75;;;19.87;72.43
68301;BME280;55146;47.468;18.806;2022-08-02T00:57:40;99908.28;;;19.91;72.35
68301;BME280;55146;47.468;18.806;2022-08-02T01:00:06;99910.53;;;19.98;71.84
68301;BME280;55146;47.468;18.806;2022-08-02T01:02:31;99906.66;;;19.90;72.02
68301;BME280;55146;47.468;18.806;2022-08-02T01:04:57;99908.50;;;19.86;72.22
68301;BME280;55146;47.468;18.806;2022-08-02T01:07:22;99910.47;;;19.86;72.31
68301;BME280;55146;47.468;18.806;2022-08-02T01:09:48;99911.34;;;19.77;72.34
68301;BME280;55146;47.468;18.806;2022-08-02T01:12:13;99909.91;;;19.71;72.30
68301;BME280;55146;47.468;18.806;2022-08-02T01:14:43;99907.41;;;19.78;72.33
68301;BME280;55146;47.468;18.806;2022-08-02T01:17:19;99911.00;;;19.79;72.29
68301;BME280;55146;47.468;18.806;2022-08-02T01:22:34;99907.94;;;19.72;72.34
68301;BME280;55146;47.468;18.806;2022-08-02T01:25:24;99913.12;;;19.61;72.27
68301;BME280;55146;47.468;18.806;2022-08-02T01:30:58;99926.31;;;19.52;73.83
68301;BME280;55146;47.468;18.806;2022-08-02T01:33:41;99923.38;;;19.49;73.91
68301;BME280;55146;47.468;18.806;2022-08-02T01:36:10;99926.84;;;19.46;74.05
68301;BME280;55146;47.468;18.806;2022-08-02T01:38:44;99921.59;;;19.44;74.06
68301;BME280;55146;47.468;18.806;2022-08-02T01:41:15;99922.56;;;19.39;74.12
68301;BME280;55146;47.468;18.806;2022-08-02T01:43:43;99934.53;;;19.49;73.82
68301;BME280;55146;47.468;18.806;2022-08-02T01:46:11;99936.03;;;19.46;74.08
68301;BME280;55146;47.468;18.806;2022-08-02T01:48:40;99951.00;;;19.33;74.76
68301;BME280;55146;47.468;18.806;2022-08-02T01:51:10;99951.50;;;19.35;74.79
68301;BME280;55146;47.468;18.806;2022-08-02T01:53:37;99956.53;;;19.42;74.76
68301;BME280;55146;47.468;18.806;2022-08-02T01:56:04;99958.50;;;19.41;74.74
68301;BME280;55146;47.468;18.806;2022-08-02T01:58:34;99958.38;;;19.37;74.59
68301;BME280;55146;47.468;18.806;2022-08-02T02:01:03;99950.03;;;19.29;74.83
68301;BME280;55146;47.468;18.806;2022-08-02T02:03:30;99949.41;;;19.23;74.64
68301;BME280;55146;47.468;18.806;2022-08-02T02:05:57;99968.41;;;19.30;74.68
68301;BME280;55146;47.468;18.806;2022-08-02T02:08:27;99951.72;;;19.21;74.78
68301;BME280;55146;47.468;18.806;2022-08-02T02:10:55;99964.22;;;19.15;75.16
68301;BME280;55146;47.468;18.806;2022-08-02T02:13:23;99965.34;;;19.23;74.97
68301;BME280;55146;47.468;18.806;2022-08-02T02:15:50;99959.94;;;19.18;74.97
68301;BME280;55146;47.468;18.806;2022-08-02T02:18:23;99964.03;;;19.20;74.75
68301;BME280;55146;47.468;18.806;2022-08-02T02:20:49;99965.34;;;19.14;74.78
68301;BME280;55146;47.468;18.806;2022-08-02T02:23:15;99962.94;;;19.13;74.80
68301;BME280;55146;47.468;18.806;2022-08-02T02:25:42;99961.81;;;19.05;74.93
68301;BME280;55146;47.468;18.806;2022-08-02T02:28:13;99967.72;;;19.04;74.98
68301;BME280;55146;47.468;18.806;2022-08-02T02:30:45;99959.66;;;19.02;74.79
68301;BME280;55146;47.468;18.806;2022-08-02T02:33:12;99961.34;;;18.94;74.91
68301;BME280;55146;47.468;18.806;2022-08-02T02:35:41;99967.25;;;18.93;74.84
68301;BME280;55146;47.468;18.806;2022-08-02T02:38:10;99963.16;;;18.90;74.93
68301;BME280;55146;47.468;18.806;2022-08-02T02:40:37;99965.47;;;18.88;74.83
68301;BME280;55146;47.468;18.806;2022-08-02T02:43:05;99967.91;;;18.90;74.84
68301;BME280;55146;47.468;18.806;2022-08-02T02:45:32;99960.22;;;18.87;74.83
68301;BME280;55146;47.468;18.806;2022-08-02T02:47:59;99966.81;;;18.82;75.02
68301;BME280;55146;47.468;18.806;2022-08-02T02:50:26;99958.72;;;18.89;75.09
68301;BME280;55146;47.468;18.806;2022-08-02T02:52:52;99954.97;;;18.85;75.14
68301;BME280;55146;47.468;18.806;2022-08-02T02:55:18;99960.25;;;18.78;75.17
68301;BME280;55146;47.468;18.806;2022-08-02T02:57:44;99959.59;;;18.73;74.99
68301;BME280;55146;47.468;18.806;2022-08-02T03:00:12;99952.22;;;18.77;75.23
68301;BME280;55146;47.468;18.806;2022-08-02T03:02:39;99953.72;;;18.74;75.84
68301;BME280;55146;47.468;18.806;2022-08-02T03:05:06;99959.28;;;18.74;76.00
68301;BME280;55146;47.468;18.806;2022-08-02T03:07:33;99956.00;;;18.72;76.07
68301;BME280;55146;47.468;18.806;2022-08-02T03:09:59;99951.38;;;18.76;76.05
68301;BME280;55146;47.468;18.806;2022-08-02T03:12:25;99937.31;;;18.73;76.19
68301;BME280;55146;47.468;18.806;2022-08-02T03:14:51;99938.97;;;18.65;76.76
68301;BME280;55146;47.468;18.806;2022-08-02T03:17:17;99934.53;;;18.73;76.36
68301;BME280;55146;47.468;18.806;2022-08-02T03:19:43;99939.97;;;18.69;76.15
68301;BME280;55146;47.468;18.806;2022-08-02T03:22:09;99943.06;;;18.59;76.44
68301;BME280;55146;47.468;18.806;2022-08-02T03:24:35;99946.53;;;18.56;76.76
68301;BME280;55146;47.468;18.806;2022-08-02T03:27:00;99939.47;;;18.58;76.82
68301;BME280;55146;47.468;18.806;2022-08-02T03:29:26;99951.78;;;18.57;76.83
68301;BME280;55146;47.468;18.806;2022-08-02T03:31:52;99950.63;;;18.58;77.07
68301;BME280;55146;47.468;18.806;2022-08-02T03:34:17;99942.63;;;18.57;77.05
68301;BME280;55146;47.468;18.806;2022-08-02T03:36:47;99948.81;;;18.63;77.04
68301;BME280;55146;47.468;18.806;2022-08-02T03:39:13;99951.28;;;18.55;77.25
68301;BME280;55146;47.468;18.806;2022-08-02T03:41:40;99952.72;;;18.53;77.70
68301;BME280;55146;47.468;18.806;2022-08-02T03:44:06;99950.97;;;18.57;77.59
68301;BME280;55146;47.468;18.806;2022-08-02T03:46:33;99955.72;;;18.56;77.72
68301;BME280;55146;47.468;18.806;2022-08-02T03:49:00;99962.09;;;18.48;78.00
68301;BME280;55146;47.468;18.806;2022-08-02T03:51:26;99956.19;;;18.50;78.06
68301;BME280;55146;47.468;18.806;2022-08-02T03:53:52;99957.00;;;18.50;78.36
68301;BME280;55146;47.468;18.806;2022-08-02T03:56:18;99971.41;;;18.52;78.40
68301;BME280;55146;47.468;18.806;2022-08-02T03:58:44;99970.59;;;18.52;78.28
68301;BME280;55146;47.468;18.806;2022-08-02T04:01:09;99968.31;;;18.45;78.53
68301;BME280;55146;47.468;18.806;2022-08-02T04:03:34;99973.72;;;18.50;78.45
68301;BME280;55146;47.468;18.806;2022-08-02T04:06:00;99975.19;;;18.48;78.34
68301;BME280;55146;47.468;18.806;2022-08-02T04:08:25;99980.44;;;18.49;78.18
68301;BME280;55146;47.468;18.806;2022-08-02T04:10:50;99989.62;;;18.41;78.39
68301;BME280;55146;47.468;18.806;2022-08-02T04:13:36;99997.66;;;18.43;78.52
68301;BME280;55146;47.468;18.806;2022-08-02T04:16:39;99993.22;;;18.42;78.73
68301;BME280;55146;47.468;18.806;2022-08-02T04:19:08;99997.81;;;18.46;nan
68301;BME280;55146;47.468;18.806;2022-08-02T04:21:36;99992.41;;;18.50;78.64
68301;BME280;55146;47.468;18.806;2022-08-02T04:24:05;99998.94;;;18.45;78.69
68301;BME280;55146;47.468;18.806;2022-08-02T04:26:33;99997.16;;;18.49;78.57
68301;BME280;55146;47.468;18.806;2022-08-02T04:28:59;99991.25;;;18.42;78.73
68301;BME280;55146;47.468;18.806;2022-08-02T04:31:25;99996.34;;;18.49;78.23
68301;BME280;55146;47.468;18.806;2022-08-02T04:33:51;100002.87;;;18.53;77.96
68301;BME280;55146;47.468;18.806;2022-08-02T04:36:17;100008.31;;;18.58;77.74
68301;BME280;55146;47.468;18.806;2022-08-02T04:38:43;99999.47;;;18.56;77.74
68301;BME280;55146;47.468;18.806;2022-08-02T04:41:08;100000.78;;;18.67;77.40
68301;BME280;55146;47.468;18.806;2022-08-02T04:43:33;100001.91;;;18.66;77.55
68301;BME280;55146;47.468;18.806;2022-08-02T04:45:59;100004.19;;;18.73;77.25
68301;BME280;55146;47.468;18.806;2022-08-02T04:48:27;100000.94;;;18.62;78.07
68301;BME280;55146;47.468;18.806;2022-08-02T04:50:52;100001.59;;;18.25;80.54
68301;BME280;55146;47.468;18.806;2022-08-02T04:53:18;100012.41;;;18.35;80.65
68301;BME280;55146;47.468;18.806;2022-08-02T04:55:44;100013.72;;;18.37;80.27
68301;BME280;55146;47.468;18.806;2022-08-02T04:58:10;100014.53;;;18.46;79.49
68301;BME280;55146;47.468;18.806;2022-08-02T05:00:35;100005.88;;;18.56;79.63
68301;BME280;55146;47.468;18.806;2022-08-02T05:03:00;100015.34;;;18.64;79.18
68301;BME280;55146;47.468;18.806;2022-08-02T05:05:26;100024.38;;;18.70;79.23
68301;BME280;55146;47.468;18.806;2022-08-02T05:07:51;100024.66;;;18.77;78.99
68301;BME280;55146;47.468;18.806;2022-08-02T05:10:17;100027.47;;;18.77;79.70
68301;BME280;55146;47.468;18.806;2022-08-02T05:12:43;100021.75;;;18.82;78.84
68301;BME280;55146;47.468;18.806;2022-08-02T05:15:10;100033.03;;;18.94;78.59
68301;BME280;55146;47.468;18.806;2022-08-02T05:17:36;100028.91;;;19.00;78.27
68301;BME280;55146;47.468;18.806;2022-08-02T05:20:04;100029.19;;;19.07;78.26
68301;BME280;55146;47.468;18.806;2022-08-02T05:22:29;100034.25;;;19.14;78.16
68301;BME280;55146;47.468;18.806;2022-08-02T05:24:54;100030.97;;;19.20;77.83
68301;BME280;55146;47.468;18.806;2022-08-02T05:27:20;100032.41;;;19.26;77.19
68301;BME280;55146;47.468;18.806;2022-08-02T05:29:45;100036.81;;;19.36;76.91
68301;BME280;55146;47.468;18.806;2022-08-02T05:32:10;100035.47;;;19.51;75.76
68301;BME280;55146;47.468;18.806;2022-08-02T05:34:36;100029.19;;;19.62;75.54
68301;BME280;55146;47.468;18.806;2022-08-02T05:37:01;100039.00;;;19.68;75.65
68301;BME280;55146;47.468;18.806;2022-08-02T05:39:26;100035.12;;;19.82;74.72
68301;BME280;55146;47.468;18.806;2022-08-02T05:41:52;100046.38;;;19.94;74.06
68301;BME280;55146;47.468;18.806;2022-08-02T05:44:17;100054.06;;;20.05;73.66
68301;BME280;55146;47.468;18.806;2022-08-02T05:46:42;100059.91;;;20.12;74.32
68301;BME280;55146;47.468;18.806;2022-08-02T05:49:08;100060.87;;;20.16;75.65
68301;BME280;55146;47.468;18.806;2022-08-02T05:51:41;100064.53;;;20.08;76.44
68301;BME280;55146;47.468;18.806;2022-08-02T05:56:46;100060.13;;;20.28;75.31
68301;BME280;55146;47.468;18.806;2022-08-02T05:59:25;100055.25;;;20.46;74.88
68301;BME280;55146;47.468;18.806;2022-08-02T06:01:56;100055.81;;;20.60;73.33
68301;BME280;55146;47.468;18.806;2022-08-02T06:07:13;100054.91;;;20.68;74.30
68301;BME280;55146;47.468;18.806;2022-08-02T06:09:39;100058.97;;;20.91;72.92
68301;BME280;55146;47.468;18.806;2022-08-02T06:12:06;100057.09;;;21.16;71.89
68301;BME280;55146;47.468;18.806;2022-08-02T06:14:35;100056.09;;;21.45;71.10
68301;BME280;55146;47.468;18.806;2022-08-02T06:17:04;100052.97;;;21.83;69.74
68301;BME280;55146;47.468;18.806;2022-08-02T06:19:31;100054.37;;;22.13;69.23
68301;BME280;55146;47.468;18.806;2022-08-02T06:21:57;100053.38;;;22.46;68.46
68301;BME280;55146;47.468;18.806;2022-08-02T06:24:45;100058.31;;;22.65;66.58
68301;BME280;55146;47.468;18.806;2022-08-02T06:27:13;100065.03;;;22.88;65.17
68301;BME280;55146;47.468;18.806;2022-08-02T06:29:42;100064.84;;;23.24;64.41
68301;BME280;55146;47.468;18.806;2022-08-02T06:32:08;100066.63;;;23.60;65.88
68301;BME280;55146;47.468;18.806;2022-08-02T06:34:38;100066.12;;;23.90;63.58
68301;BME280;55146;47.468;18.806;2022-08-02T06:40:13;100068.28;;;24.63;62.88
68301;BME280;55146;47.468;18.806;2022-08-02T06:45:21;100066.56;;;25.16;59.30
68301;BME280;55146;47.468;18.806;2022-08-02T06:47:46;100064.34;;;25.48;60.30
68301;BME280;55146;47.468;18.806;2022-08-02T06:50:11;100071.28;;;25.76;59.12
68301;BME280;55146;47.468;18.806;2022-08-02T06:52:38;100075.78;;;26.04;56.82
68301;BME280;55146;47.468;18.806;2022-08-02T06:55:04;100076.50;;;26.24;55.26
68301;BME280;55146;47.468;18.806;2022-08-02T06:57:30;100070.09;;;26.53;55.23
68301;BME280;55146;47.468;18.806;2022-08-02T06:59:56;100070.78;;;26.76;54.88
68301;BME280;55146;47.468;18.806;2022-08-02T07:02:22;100063.63;;;26.86;53.56
68301;BME280;55146;47.468;18.806;2022-08-02T07:04:48;100067.50;;;26.71;51.44
68301;BME280;55146;47.468;18.806;2022-08-02T07:07:14;100069.97;;;27.06;53.77
68301;BME280;55146;47.468;18.806;2022-08-02T07:09:39;100059.28;;;27.25;53.86
68301;BME280;55146;47.468;18.806;2022-08-02T07:12:04;100057.06;;;27.45;51.70
68301;BME280;55146;47.468;18.806;2022-08-02T07:14:30;100060.47;;;27.61;49.58
68301;BME280;55146;47.468;18.806;2022-08-02T07:16:57;100057.44;;;27.40;47.42
68301;BME280;55146;47.468;18.806;2022-08-02T07:19:22;100054.06;;;27.64;49.65
68301;BME280;55146;47.468;18.806;2022-08-02T07:21:47;100055.53;;;27.99;50.15
68301;BME280;55146;47.468;18.806;2022-08-02T07:24:13;100058.94;;;28.19;49.22
68301;BME280;55146;47.468;18.806;2022-08-02T07:26:38;100050.69;;;28.61;48.33
68301;BME280;55146;47.468;18.806;2022-08-02T07:29:04;100052.81;;;28.78;48.34
68301;BME280;55146;47.468;18.806;2022-08-02T07:31:29;100048.84;;;29.04;46.53
68301;BME280;55146;47.468;18.806;2022-08-02T07:33:55;100043.09;;;28.79;44.46
68301;BME280;55146;47.468;18.806;2022-08-02T07:36:20;100050.44;;;28.91;45.65
68301;BME280;55146;47.468;18.806;2022-08-02T07:38:46;100048.06;;;29.14;44.01
68301;BME280;55146;47.468;18.806;2022-08-02T07:41:11;100042.84;;;29.23;45.24
68301;BME280;55146;47.468;18.806;2022-08-02T07:43:36;100047.72;;;29.30;44.32
68301;BME280;55146;47.468;18.806;2022-08-02T07:46:02;100041.28;;;29.37;41.91
68301;BME280;55146;47.468;18.806;2022-08-02T07:48:27;100041.28;;;29.58;44.10
68301;BME280;55146;47.468;18.806;2022-08-02T07:50:52;100038.47;;;29.68;45.36
68301;BME280;55146;47.468;18.806;2022-08-02T07:53:18;100039.69;;;29.74;42.86
68301;BME280;55146;47.468;18.806;2022-08-02T07:55:43;100038.47;;;29.97;43.32
68301;BME280;55146;47.468;18.806;2022-08-02T07:58:10;100038.38;;;30.43;41.89
68301;BME280;55146;47.468;18.806;2022-08-02T08:00:35;100038.41;;;30.36;40.33
68301;BME280;55146;47.468;18.806;2022-08-02T08:03:01;100039.19;;;30.50;39.20
68301;BME280;55146;47.468;18.806;2022-08-02T08:05:26;100038.81;;;30.31;39.16
68301;BME280;55146;47.468;18.806;2022-08-02T08:07:52;100039.16;;;30.65;39.47
68301;BME280;55146;47.468;18.806;2022-08-02T08:10:17;100037.94;;;30.59;41.30
68301;BME280;55146;47.468;18.806;2022-08-02T08:12:43;100042.22;;;31.09;41.10
68301;BME280;55146;47.468;18.806;2022-08-02T08:15:08;100044.66;;;31.00;40.93
68301;BME280;55146;47.468;18.806;2022-08-02T08:17:35;100040.25;;;30.92;40.04
68301;BME280;55146;47.468;18.806;2022-08-02T08:20:02;100048.72;;;31.10;40.02
68301;BME280;55146;47.468;18.806;2022-08-02T08:22:28;100046.69;;;31.03;36.70
68301;BME280;55146;47.468;18.806;2022-08-02T08:24:54;100043.69;;;31.35;38.01
68301;BME280;55146;47.468;18.806;2022-08-02T08:27:19;100045.53;;;31.63;36.73
68301;BME280;55146;47.468;18.806;2022-08-02T08:29:47;100040.91;;;31.80;36.68
68301;BME280;55146;47.468;18.806;2022-08-02T08:32:13;100040.78;;;31.42;35.75
68301;BME280;55146;47.468;18.806;2022-08-02T08:34:38;100042.03;;;31.93;36.97
68301;BME280;55146;47.468;18.806;2022-08-02T08:37:04;100048.09;;;31.95;35.40
68301;BME280;55146;47.468;18.806;2022-08-02T08:39:29;100048.62;;;31.79;35.14
68301;BME280;55146;47.468;18.806;2022-08-02T08:41:55;100039.22;;;31.89;34.26
68301;BME280;55146;47.468;18.806;2022-08-02T08:44:20;100051.19;;;32.11;33.86
68301;BME280;55146;47.468;18.806;2022-08-02T08:46:47;100050.28;;;32.25;35.93
68301;BME280;55146;47.468;18.806;2022-08-02T08:49:24;100040.63;;;32.11;36.31
68301;BME280;55146;47.468;18.806;2022-08-02T08:51:53;100048.28;;;31.73;36.28
68301;BME280;55146;47.468;18.806;2022-08-02T08:54:22;100046.00;;;32.02;34.06
68301;BME280;55146;47.468;18.806;2022-08-02T08:56:49;100049.88;;;32.23;35.68
68301;BME280;55146;47.468;18.806;2022-08-02T08:59:16;100048.88;;;32.43;35.60
68301;BME280;55146;47.468;18.806;2022-08-02T09:01:43;100053.81;;;32.36;34.73
68301;BME280;55146;47.468;18.806;2022-08-02T09:04:08;100052.09;;;32.45;32.60
68301;BME280;55146;47.468;18.806;2022-08-02T09:06:34;100055.09;;;32.31;36.16
68301;BME280;55146;47.468;18.806;2022-08-02T09:08:59;100060.59;;;32.86;36.24
68301;BME280;55146;47.468;18.806;2022-08-02T09:11:24;100054.75;;;32.63;35.54
68301;BME280;55146;47.468;18.806;2022-08-02T09:13:51;100058.13;;;32.51;33.35
68301;BME280;55146;47.468;18.806;2022-08-02T09:18:59;100052.84;;;32.49;34.20
68301;BME280;55146;47.468;18.806;2022-08-02T09:21:34;100064.09;;;32.98;34.33
68301;BME280;55146;47.468;18.806;2022-08-02T09:23:59;100057.78;;;33.13;33.85
68301;BME280;55146;47.468;18.806;2022-08-02T09:26:25;100056.09;;;33.46;33.16
68301;BME280;55146;47.468;18.806;2022-08-02T09:29:00;100055.78;;;33.41;32.76
68301;BME280;55146;47.468;18.806;2022-08-02T09:31:26;100055.19;;;33.26;32.36
68301;BME280;55146;47.468;18.806;2022-08-02T09:33:56;100057.78;;;33.70;35.22
68301;BME280;55146;47.468;18.806;2022-08-02T09:36:22;100058.59;;;33.71;31.34
68301;BME280;55146;47.468;18.806;2022-08-02T09:38:59;100063.31;;;33.54;31.90
68301;BME280;55146;47.468;18.806;2022-08-02T09:41:30;100052.25;;;33.83;37.15
68301;BME280;55146;47.468;18.806;2022-08-02T09:43:57;100058.34;;;33.58;34.52
68301;BME280;55146;47.468;18.806;2022-08-02T09:46:25;100059.84;;;33.13;31.53
68301;BME280;55146;47.468;18.806;2022-08-02T09:48:52;100045.69;;;33.86;32.70
68301;BME280;55146;47.468;18.806;2022-08-02T09:53:52;100045.28;;;33.61;33.84
68301;BME280;55146;47.468;18.806;2022-08-02T09:56:19;100042.62;;;33.47;30.87
68301;BME280;55146;47.468;18.806;2022-08-02T09:58:45;100047.37;;;33.84;32.24
68301;BME280;55146;47.468;18.806;2022-08-02T10:01:11;100042.66;;;33.74;31.90
68301;BME280;55146;47.468;18.806;2022-08-02T10:03:36;100036.72;;;33.88;31.56
68301;BME280;55146;47.468;18.806;2022-08-02T10:06:01;100034.56;;;34.15;32.22
68301;BME280;55146;47.468;18.806;2022-08-02T10:08:29;100033.47;;;33.86;32.93
68301;BME280;55146;47.468;18.806;2022-08-02T10:10:55;100034.19;;;33.40;32.97
68301;BME280;55146;47.468;18.806;2022-08-02T10:13:32;100027.75;;;33.59;31.92
68301;BME280;55146;47.468;18.806;2022-08-02T10:15:58;100028.25;;;33.54;34.53
68301;BME280;55146;47.468;18.806;2022-08-02T10:18:24;100023.91;;;32.54;31.23
68301;BME280;55146;47.468;18.806;2022-08-02T10:20:51;100025.97;;;33.18;32.92
68301;BME280;55146;47.468;18.806;2022-08-02T10:23:19;100023.47;;;33.47;32.87
68301;BME280;55146;47.468;18.806;2022-08-02T10:25:46;100011.72;;;33.18;32.85
68301;BME280;55146;47.468;18.806;2022-08-02T10:28:14;100012.91;;;33.17;31.90
68301;BME280;55146;47.468;18.806;2022-08-02T10:30:41;100009.59;;;33.49;33.60
68301;BME280;55146;47.468;18.806;2022-08-02T10:33:08;100012.44;;;33.76;32.37
68301;BME280;55146;47.468;18.806;2022-08-02T10:35:36;100007.72;;;33.39;30.10
68301;BME280;55146;47.468;18.806;2022-08-02T10:38:05;100006.63;;;33.29;30.90
68301;BME280;55146;47.468;18.806;2022-08-02T10:40:44;99998.31;;;33.65;31.75
68301;BME280;55146;47.468;18.806;2022-08-02T10:43:11;100009.91;;;33.55;31.40
68301;BME280;55146;47.468;18.806;2022-08-02T10:45:37;99992.59;;;33.65;32.44
68301;BME280;55146;47.468;18.806;2022-08-02T10:48:08;100010.34;;;32.96;31.74
68301;BME280;55146;47.468;18.806;2022-08-02T10:53:27;100012.91;;;32.57;33.60
68301;BME280;55146;47.468;18.806;2022-08-02T10:55:55;100016.22;;;32.85;31.16
68301;BME280;55146;47.468;18.806;2022-08-02T10:58:23;100007.53;;;33.26;32.56
68301;BME280;55146;47.468;18.806;2022-08-02T11:00:49;100005.44;;;33.54;30.87
68301;BME280;55146;47.468;18.806;2022-08-02T11:08:30;100009.41;;;33.06;30.92
68301;BME280;55146;47.468;18.806;2022-08-02T11:19:20;99996.16;;;33.96;30.72
68301;BME280;55146;47.468;18.806;2022-08-02T11:22:06;99996.31;;;33.09;30.95
68301;BME280;55146;47.468;18.806;2022-08-02T11:24:35;100005.12;;;33.21;31.50
68301;BME280;55146;47.468;18.806;2022-08-02T11:27:02;100001.03;;;33.76;32.26
68301;BME280;55146;47.468;18.806;2022-08-02T11:29:42;100002.47;;;34.07;32.83
68301;BME280;55146;47.468;18.806;2022-08-02T11:32:20;99995.38;;;33.46;31.47
68301;BME280;55146;47.468;18.806;2022-08-02T11:34:49;99994.75;;;33.04;30.93
68301;BME280;55146;47.468;18.806;2022-08-02T11:37:32;99992.87;;;32.94;30.82
68301;BME280;55146;47.468;18.806;2022-08-02T11:39:58;99989.53;;;33.29;30.15
68301;BME280;55146;47.468;18.806;2022-08-02T11:42:34;99982.06;;;33.62;30.34
68301;BME280;55146;47.468;18.806;2022-08-02T11:45:00;99984.75;;;33.73;32.12
68301;BME280;55146;47.468;18.806;2022-08-02T11:47:26;99981.25;;;33.62;31.29
68301;BME280;55146;47.468;18.806;2022-08-02T11:49:51;99989.22;;;33.24;31.00
68301;BME280;55146;47.468;18.806;2022-08-02T11:52:17;99991.44;;;33.09;30.72
68301;BME280;55146;47.468;18.806;2022-08-02T11:54:43;99995.97;;;33.33;31.18
68301;BME280;55146;47.468;18.806;2022-08-02T11:59:42;99990.94;;;33.91;30.46
68301;BME280;55146;47.468;18.806;2022-08-02T12:02:08;99986.66;;;34.03;31.05
68301;BME280;55146;47.468;18.806;2022-08-02T12:04:35;99985.06;;;33.28;29.19
68301;BME280;55146;47.468;18.806;2022-08-02T12:07:02;99988.16;;;33.88;30.44
68301;BME280;55146;47.468;18.806;2022-08-02T12:09:29;99973.25;;;33.77;27.58
68301;BME280;55146;47.468;18.806;2022-08-02T12:11:55;99973.59;;;34.02;28.96
68301;BME280;55146;47.468;18.806;2022-08-02T12:14:23;99982.47;;;33.38;28.35
68301;BME280;55146;47.468;18.806;2022-08-02T12:16:48;99978.03;;;33.60;28.52
68301;BME280;55146;47.468;18.806;2022-08-02T12:19:34;99974.94;;;33.97;26.93
68301;BME280;55146;47.468;18.806;2022-08-02T12:22:16;99958.84;;;34.07;27.47
68301;BME280;55146;47.468;18.806;2022-08-02T12:24:45;99966.09;;;33.65;26.72
68301;BME280;55146;47.468;18.806;2022-08-02T12:27:27;99964.13;;;33.62;28.24
68301;BME280;55146;47.468;18.806;2022-08-02T12:30:16;99971.19;;;33.54;30.94
68301;BME280;55146;47.468;18.806;2022-08-02T12:32:42;99969.84;;;33.39;33.26
68301;BME280;55146;47.468;18.806;2022-08-02T12:35:29;99965.69;;;32.89;31.78
68301;BME280;55146;47.468;18.806;2022-08-02T12:37:54;99980.22;;;31.93;32.03
68301;BME280;55146;47.468;18.806;2022-08-02T12:40:30;99964.84;;;31.39;32.68
68301;BME280;55146;47.468;18.806;2022-08-02T12:42:57;99962.72;;;31.95;34.80
68301;BME280;55146;47.468;18.806;2022-08-02T12:45:25;99961.25;;;32.21;33.55
68301;BME280;55146;47.468;18.806;2022-08-02T12:47:53;99966.59;;;32.11;31.89
68301;BME280;55146;47.468;18.806;2022-08-02T12:50:28;99970.31;;;32.08;32.39
68301;BME280;55146;47.468;18.806;2022-08-02T12:53:11;99944.03;;;32.62;33.29
68301;BME280;55146;47.468;18.806;2022-08-02T12:55:49;99968.47;;;32.59;31.72
68301;BME280;55146;47.468;18.806;2022-08-02T12:58:15;99956.53;;;32.71;31.50
68301;BME280;55146;47.468;18.806;2022-08-02T13:00:40;99958.47;;;32.78;30.89
68301;BME280;55146;47.468;18.806;2022-08-02T13:03:06;99963.91;;;32.65;34.03
68301;BME280;55146;47.468;18.806;2022-08-02T13:05:34;99957.69;;;32.77;31.19
68301;BME280;55146;47.468;18.806;2022-08-02T13:08:01;99957.25;;;32.79;31.60
68301;BME280;55146;47.468;18.806;2022-08-02T13:10:27;99964.38;;;32.94;31.72
68301;BME280;55146;47.468;18.806;2022-08-02T13:12:53;99954.47;;;32.75;29.47
68301;BME280;55146;47.468;18.806;2022-08-02T13:15:19;99955.31;;;32.72;29.91
68301;BME280;55146;47.468;18.806;2022-08-02T13:17:45;99957.81;;;32.97;31.25
68301;BME280;55146;47.468;18.806;2022-08-02T13:20:11;99953.06;;;32.87;28.77
68301;BME280;55146;47.468;18.806;2022-08-02T13:22:39;99951.41;;;32.89;28.66
68301;BME280;55146;47.468;18.806;2022-08-02T13:25:04;99950.19;;;31.85;29.21
68301;BME280;55146;47.468;18.806;2022-08-02T13:27:30;99949.00;;;31.38;29.61
68301;BME280;55146;47.468;18.806;2022-08-02T13:29:56;99950.13;;;31.92;33.28
68301;BME280;55146;47.468;18.806;2022-08-02T13:32:23;99950.94;;;32.30;32.43